createdAt,value
2022-10-06T00:00:28.428Z,12.59
2022-10-06T00:01:30.236Z,12.58
2022-10-06T00:02:31.931Z,12.57
2022-10-06T00:03:33.615Z,12.56
2022-10-06T00:04:35.432Z,12.56
2022-10-06T00:05:37.083Z,12.55
2022-10-06T00:06:38.858Z,12.55
2022-10-06T00:07:40.555Z,12.54
2022-10-06T00:08:42.298Z,12.53
2022-10-06T00:09:44.043Z,12.53
2022-10-06T00:10:45.789Z,12.53
2022-10-06T00:11:47.491Z,12.51
2022-10-06T00:12:49.231Z,12.5
2022-10-06T00:13:50.966Z,12.49
2022-10-06T00:14:52.707Z,12.49
2022-10-06T00:15:54.533Z,12.48
2022-10-06T00:16:56.166Z,12.48
2022-10-06T00:17:57.908Z,12.46
2022-10-06T00:18:59.637Z,12.45
2022-10-06T00:20:01.370Z,12.44
2022-10-06T00:21:03.110Z,12.44
2022-10-06T00:22:04.840Z,12.44
2022-10-06T00:23:06.574Z,12.44
2022-10-06T00:24:08.385Z,12.43
2022-10-06T00:25:10.074Z,12.43
2022-10-06T00:26:11.770Z,12.43
2022-10-06T00:27:13.503Z,12.44
2022-10-06T00:28:15.275Z,12.44
2022-10-06T00:29:16.981Z,12.43
2022-10-06T00:30:18.730Z,12.42
2022-10-06T00:31:20.585Z,12.42
2022-10-06T00:32:22.191Z,12.43
2022-10-06T00:33:23.913Z,12.45
2022-10-06T00:34:25.663Z,12.48
2022-10-06T00:35:27.399Z,12.5
2022-10-06T00:36:29.126Z,12.52
2022-10-06T00:37:30.851Z,12.55
2022-10-06T00:38:33.023Z,12.61
2022-10-06T00:39:34.322Z,12.66
2022-10-06T00:40:36.066Z,12.69
2022-10-06T00:41:37.810Z,12.73
2022-10-06T00:42:39.532Z,12.76
2022-10-06T00:43:41.261Z,12.81
2022-10-06T00:44:42.998Z,12.84
2022-10-06T00:45:44.746Z,12.87
2022-10-06T00:46:46.619Z,12.89
2022-10-06T00:47:48.199Z,12.91
2022-10-06T00:48:49.937Z,12.94
2022-10-06T00:49:51.672Z,12.97
2022-10-06T00:50:53.413Z,12.99
2022-10-06T00:51:55.147Z,13.01
2022-10-06T00:52:56.877Z,13.04
2022-10-06T00:53:58.613Z,13.07
2022-10-06T00:55:00.355Z,13.1
2022-10-06T00:56:02.098Z,13.13
2022-10-06T00:57:03.816Z,13.14
2022-10-06T00:58:05.547Z,13.17
2022-10-06T00:59:07.274Z,13.18
2022-10-06T01:00:09.011Z,13.2
2022-10-06T01:01:10.807Z,13.22
2022-10-06T01:02:12.498Z,13.22
2022-10-06T01:03:14.208Z,13.23
2022-10-06T01:04:15.958Z,13.24
2022-10-06T01:05:17.677Z,13.25
2022-10-06T01:06:19.418Z,13.26
2022-10-06T01:07:21.151Z,13.27
2022-10-06T01:08:22.874Z,13.27
2022-10-06T01:09:24.613Z,13.29
2022-10-06T01:10:26.358Z,13.29
2022-10-06T01:11:28.092Z,13.3
2022-10-06T01:12:29.831Z,13.31
2022-10-06T01:13:31.568Z,13.32
2022-10-06T01:14:33.293Z,13.33
2022-10-06T01:15:35.063Z,13.34
2022-10-06T01:16:36.781Z,13.35
2022-10-06T01:17:38.495Z,13.36
2022-10-06T01:18:40.238Z,13.37
2022-10-06T01:19:41.963Z,13.39
2022-10-06T01:20:43.704Z,13.39
2022-10-06T01:21:45.436Z,13.41
2022-10-06T01:22:47.187Z,13.43
2022-10-06T01:23:48.900Z,13.44
2022-10-06T01:24:50.640Z,13.45
2022-10-06T01:25:52.369Z,13.46
2022-10-06T01:26:54.116Z,13.47
2022-10-06T01:27:55.945Z,13.49
2022-10-06T01:28:57.570Z,13.49
2022-10-06T01:29:59.304Z,13.51
2022-10-06T01:31:01.119Z,13.53
2022-10-06T01:32:02.770Z,13.54
2022-10-06T01:33:04.502Z,13.54
2022-10-06T01:34:06.243Z,13.56
2022-10-06T01:35:07.993Z,13.58
2022-10-06T01:36:09.722Z,13.6
2022-10-06T01:37:11.454Z,13.61
2022-10-06T01:38:13.170Z,13.62
2022-10-06T01:39:14.950Z,13.64
2022-10-06T01:40:16.653Z,13.65
2022-10-06T01:41:18.383Z,13.66
2022-10-06T01:42:20.151Z,13.67
2022-10-06T01:43:21.864Z,13.68
2022-10-06T01:44:23.590Z,13.7
2022-10-06T01:45:25.330Z,13.71
2022-10-06T01:46:27.108Z,13.73
2022-10-06T01:47:28.817Z,13.76
2022-10-06T01:48:30.828Z,13.79
2022-10-06T01:49:32.261Z,13.82
2022-10-06T01:50:34.005Z,13.85
2022-10-06T01:51:35.736Z,13.88
2022-10-06T01:52:37.480Z,13.91
2022-10-06T01:53:39.196Z,13.93
2022-10-06T01:54:40.923Z,13.96
2022-10-06T01:55:42.667Z,13.98
2022-10-06T01:56:44.394Z,14.01
2022-10-06T01:57:46.142Z,14.03
2022-10-06T01:58:47.867Z,14.05
2022-10-06T01:59:54.447Z,14.06
2022-10-06T02:00:51.337Z,14.09
2022-10-06T02:01:53.126Z,14.1
2022-10-06T02:02:54.816Z,14.11
2022-10-06T02:03:56.531Z,14.12
2022-10-06T02:04:58.244Z,14.13
2022-10-06T02:05:59.994Z,14.13
2022-10-06T02:07:01.688Z,14.14
2022-10-06T02:08:03.514Z,14.13
2022-10-06T02:09:05.137Z,14.13
2022-10-06T02:10:06.879Z,14.12
2022-10-06T02:11:08.837Z,14.12
2022-10-06T02:12:10.340Z,14.11
2022-10-06T02:13:12.125Z,14.1
2022-10-06T02:14:13.814Z,14.09
2022-10-06T02:15:15.562Z,14.08
2022-10-06T02:16:17.429Z,14.07
2022-10-06T02:17:19.012Z,14.06
2022-10-06T02:18:20.769Z,14.05
2022-10-06T02:19:22.486Z,14.04
2022-10-06T02:20:24.230Z,14.03
2022-10-06T02:21:25.956Z,14.02
2022-10-06T02:22:27.701Z,14.01
2022-10-06T02:23:29.444Z,14
2022-10-06T02:24:31.161Z,13.99
2022-10-06T02:25:32.903Z,13.99
2022-10-06T02:26:34.628Z,13.98
2022-10-06T02:27:36.364Z,13.96
2022-10-06T02:28:38.105Z,13.95
2022-10-06T02:29:39.843Z,13.94
2022-10-06T02:30:41.569Z,13.94
2022-10-06T02:31:43.346Z,13.93
2022-10-06T02:32:45.044Z,13.92
2022-10-06T02:33:46.785Z,13.91
2022-10-06T02:34:48.512Z,13.9
2022-10-06T02:35:50.225Z,13.89
2022-10-06T02:36:51.975Z,13.88
2022-10-06T02:37:53.714Z,13.88
2022-10-06T02:38:55.463Z,13.86
2022-10-06T02:39:57.181Z,13.86
2022-10-06T02:40:58.913Z,13.83
2022-10-06T02:42:00.640Z,13.83
2022-10-06T02:43:02.387Z,13.82
2022-10-06T02:44:04.133Z,13.8
2022-10-06T02:45:05.854Z,13.79
2022-10-06T02:46:07.658Z,13.79
2022-10-06T02:47:09.327Z,13.77
2022-10-06T02:48:11.061Z,13.77
2022-10-06T02:49:12.795Z,13.74
2022-10-06T02:50:14.522Z,13.73
2022-10-06T02:51:16.275Z,13.72
2022-10-06T02:52:18.001Z,13.7
2022-10-06T02:53:19.735Z,13.69
2022-10-06T02:54:21.489Z,13.69
2022-10-06T02:55:23.203Z,13.67
2022-10-06T02:56:24.938Z,13.65
2022-10-06T02:57:26.675Z,13.64
2022-10-06T02:58:28.550Z,13.63
2022-10-06T02:59:30.139Z,13.63
2022-10-06T03:00:31.879Z,13.61
2022-10-06T03:01:33.662Z,13.6
2022-10-06T03:02:35.512Z,13.59
2022-10-06T03:03:37.102Z,13.58
2022-10-06T03:04:38.815Z,13.56
2022-10-06T03:05:40.539Z,13.54
2022-10-06T03:06:42.280Z,13.54
2022-10-06T03:07:44.010Z,13.52
2022-10-06T03:08:45.771Z,13.51
2022-10-06T03:09:47.488Z,13.5
2022-10-06T03:10:49.259Z,13.48
2022-10-06T03:11:50.977Z,13.48
2022-10-06T03:12:52.694Z,13.46
2022-10-06T03:13:54.448Z,13.45
2022-10-06T03:14:56.154Z,13.44
2022-10-06T03:15:58.042Z,13.43
2022-10-06T03:16:59.627Z,13.42
2022-10-06T03:18:01.365Z,13.41
2022-10-06T03:19:03.095Z,13.4
2022-10-06T03:20:04.835Z,13.39
2022-10-06T03:21:06.557Z,13.38
2022-10-06T03:22:08.293Z,13.37
2022-10-06T03:23:13.412Z,13.36
2022-10-06T03:24:11.788Z,13.36
2022-10-06T03:25:13.508Z,13.34
2022-10-06T03:26:15.237Z,13.33
2022-10-06T03:27:16.972Z,13.33
2022-10-06T03:28:18.747Z,13.32
2022-10-06T03:29:20.442Z,13.31
2022-10-06T03:30:22.178Z,13.31
2022-10-06T03:31:24.014Z,13.3
2022-10-06T03:32:25.726Z,13.3
2022-10-06T03:33:27.381Z,13.29
2022-10-06T03:34:29.128Z,13.3
2022-10-06T03:35:30.858Z,13.29
2022-10-06T03:36:32.588Z,13.28
2022-10-06T03:37:34.313Z,13.28
2022-10-06T03:38:36.073Z,13.28
2022-10-06T03:39:37.780Z,13.27
2022-10-06T03:40:39.525Z,13.27
2022-10-06T03:41:41.265Z,13.26
2022-10-06T03:42:42.995Z,13.25
2022-10-06T03:43:44.759Z,13.25
2022-10-06T03:44:46.469Z,13.24
2022-10-06T03:45:48.188Z,13.22
2022-10-06T03:46:49.993Z,13.21
2022-10-06T03:47:51.666Z,13.21
2022-10-06T03:48:53.403Z,13.19
2022-10-06T03:49:55.128Z,13.18
2022-10-06T03:50:56.871Z,13.16
2022-10-06T03:51:58.604Z,13.15
2022-10-06T03:53:00.337Z,13.14
2022-10-06T03:54:02.097Z,13.13
2022-10-06T03:55:03.808Z,13.12
2022-10-06T03:56:05.566Z,13.1
2022-10-06T03:57:07.288Z,13.09
2022-10-06T03:58:09.009Z,13.07
2022-10-06T03:59:10.753Z,13.06
2022-10-06T04:00:12.492Z,13.05
2022-10-06T04:01:14.303Z,13.04
2022-10-06T04:02:15.994Z,13.03
2022-10-06T04:03:17.700Z,13.02
2022-10-06T04:04:19.444Z,13.01
2022-10-06T04:05:21.154Z,13
2022-10-06T04:06:22.894Z,12.99
2022-10-06T04:07:24.630Z,12.98
2022-10-06T04:08:27.007Z,12.97
2022-10-06T04:09:28.105Z,12.96
2022-10-06T04:10:29.833Z,12.94
2022-10-06T04:11:31.577Z,12.93
2022-10-06T04:12:33.281Z,12.92
2022-10-06T04:13:35.028Z,12.91
2022-10-06T04:14:36.731Z,12.91
2022-10-06T04:15:38.450Z,12.89
2022-10-06T04:16:40.249Z,12.89
2022-10-06T04:17:41.917Z,12.88
2022-10-06T04:18:43.663Z,12.87
2022-10-06T04:19:45.388Z,12.86
2022-10-06T04:20:47.116Z,12.85
2022-10-06T04:21:48.855Z,12.84
2022-10-06T04:22:50.593Z,12.83
2022-10-06T04:23:52.349Z,12.81
2022-10-06T04:24:54.058Z,12.81
2022-10-06T04:25:56.071Z,12.79
2022-10-06T04:26:57.534Z,12.78
2022-10-06T04:27:59.278Z,12.77
2022-10-06T04:29:00.995Z,12.76
2022-10-06T04:30:02.735Z,12.75
2022-10-06T04:31:04.461Z,12.74
2022-10-06T04:32:06.208Z,12.73
2022-10-06T04:33:07.940Z,12.73
2022-10-06T04:34:09.692Z,12.73
2022-10-06T04:35:11.406Z,12.73
2022-10-06T04:36:13.142Z,12.72
2022-10-06T04:37:14.876Z,12.72
2022-10-06T04:38:16.653Z,12.72
2022-10-06T04:39:18.365Z,12.73
2022-10-06T04:40:20.081Z,12.73
2022-10-06T04:41:21.819Z,12.72
2022-10-06T04:42:23.554Z,12.72
2022-10-06T04:43:25.287Z,12.71
2022-10-06T04:44:27.095Z,12.71
2022-10-06T04:45:28.825Z,12.7
2022-10-06T04:46:42.548Z,12.69
2022-10-06T04:47:32.246Z,12.69
2022-10-06T04:48:33.968Z,12.68
2022-10-06T04:49:35.698Z,12.67
2022-10-06T04:50:37.439Z,12.66
2022-10-06T04:51:39.169Z,12.64
2022-10-06T04:52:40.898Z,12.64
2022-10-06T04:53:42.694Z,12.62
2022-10-06T04:54:44.389Z,12.6
2022-10-06T04:55:46.112Z,12.59
2022-10-06T04:56:47.845Z,12.57
2022-10-06T04:57:49.580Z,12.55
2022-10-06T04:58:51.324Z,12.54
2022-10-06T04:59:53.037Z,12.51
2022-10-06T05:00:54.847Z,12.49
2022-10-06T05:01:56.592Z,12.47
2022-10-06T05:02:58.245Z,12.43
2022-10-06T05:04:00.009Z,12.41
2022-10-06T05:05:01.718Z,12.39
2022-10-06T05:06:03.461Z,12.37
2022-10-06T05:07:05.194Z,12.34
2022-10-06T05:08:06.930Z,12.33
2022-10-06T05:09:08.674Z,12.3
2022-10-06T05:10:10.394Z,12.26
2022-10-06T05:11:15.254Z,12.25
2022-10-06T05:12:13.862Z,12.23
2022-10-06T05:13:15.678Z,12.21
2022-10-06T05:14:17.353Z,12.18
2022-10-06T05:15:19.068Z,12.15
2022-10-06T05:16:20.876Z,12.13
2022-10-06T05:17:22.539Z,12.11
2022-10-06T05:18:24.276Z,12.08
2022-10-06T05:19:26.002Z,12.05
2022-10-06T05:20:27.743Z,12.03
2022-10-06T05:21:29.481Z,12.02
2022-10-06T05:22:31.209Z,12.01
2022-10-06T05:23:32.974Z,11.99
2022-10-06T05:24:34.687Z,11.97
2022-10-06T05:25:36.445Z,11.97
2022-10-06T05:26:38.156Z,11.96
2022-10-06T05:27:39.909Z,11.94
2022-10-06T05:28:41.780Z,11.94
2022-10-06T05:29:43.361Z,11.93
2022-10-06T05:30:45.098Z,11.93
2022-10-06T05:31:46.869Z,11.92
2022-10-06T05:32:48.579Z,11.93
2022-10-06T05:33:50.317Z,11.92
2022-10-06T05:34:52.025Z,11.93
2022-10-06T05:35:53.757Z,11.92
2022-10-06T05:36:55.488Z,11.93
2022-10-06T05:37:57.231Z,11.94
2022-10-06T05:38:58.983Z,11.94
2022-10-06T05:40:00.694Z,11.94
2022-10-06T05:41:02.446Z,11.94
2022-10-06T05:42:04.173Z,11.96
2022-10-06T05:43:05.905Z,11.97
2022-10-06T05:44:07.646Z,11.96
2022-10-06T05:45:09.369Z,11.97
2022-10-06T05:46:11.159Z,11.97
2022-10-06T05:47:12.847Z,11.97
2022-10-06T05:48:14.577Z,11.97
2022-10-06T05:49:16.323Z,11.97
2022-10-06T05:50:20.305Z,11.98
2022-10-06T05:51:19.789Z,11.97
2022-10-06T05:52:21.513Z,11.97
2022-10-06T05:53:23.250Z,11.96
2022-10-06T05:54:25.013Z,11.96
2022-10-06T05:55:26.720Z,11.95
2022-10-06T05:56:28.546Z,11.96
2022-10-06T05:57:30.201Z,11.96
2022-10-06T05:58:32.265Z,11.95
2022-10-06T05:59:33.660Z,11.96
2022-10-06T06:00:35.392Z,11.96
2022-10-06T06:01:37.194Z,11.96
2022-10-06T06:02:38.921Z,11.95
2022-10-06T06:03:50.879Z,11.94
2022-10-06T06:04:52.613Z,11.93
2022-10-06T06:05:54.343Z,11.92
2022-10-06T06:06:56.080Z,11.9
2022-10-06T06:07:57.819Z,11.89
2022-10-06T06:09:32.725Z,11.87
2022-10-06T06:10:45.308Z,11.84
2022-10-06T06:11:47.065Z,11.83
2022-10-06T06:12:48.778Z,11.82
2022-10-06T06:13:50.529Z,11.79
2022-10-06T06:14:52.538Z,11.77
2022-10-06T06:15:53.964Z,11.76
2022-10-06T06:16:55.758Z,11.74
2022-10-06T06:17:57.460Z,11.73
2022-10-06T06:18:59.159Z,11.72
2022-10-06T06:20:00.892Z,11.71
2022-10-06T06:21:02.617Z,11.7
2022-10-06T06:22:04.365Z,11.7
2022-10-06T06:23:06.082Z,11.69
2022-10-06T06:24:07.847Z,11.68
2022-10-06T06:25:09.581Z,11.68
2022-10-06T06:26:11.289Z,11.68
2022-10-06T06:27:13.046Z,11.68
2022-10-06T06:28:14.894Z,11.69
2022-10-06T06:29:16.503Z,11.68
2022-10-06T06:30:18.237Z,11.69
2022-10-06T06:31:20.413Z,11.69
2022-10-06T06:32:21.686Z,11.69
2022-10-06T06:33:23.413Z,11.7
2022-10-06T06:34:25.169Z,11.71
2022-10-06T06:35:26.876Z,11.71
2022-10-06T06:36:28.617Z,11.71
2022-10-06T06:37:30.358Z,11.72
2022-10-06T06:38:32.758Z,11.74
2022-10-06T06:39:33.833Z,11.75
2022-10-06T06:40:35.560Z,11.76
2022-10-06T06:41:37.290Z,11.77
2022-10-06T06:42:39.010Z,11.79
2022-10-06T06:43:40.774Z,11.8
2022-10-06T06:44:42.507Z,11.81
2022-10-06T06:45:44.270Z,11.83
2022-10-06T06:46:45.967Z,11.83
2022-10-06T06:47:47.689Z,11.85
2022-10-06T06:48:49.444Z,11.87
2022-10-06T06:49:51.174Z,11.89
2022-10-06T06:50:52.911Z,11.9
2022-10-06T06:51:54.626Z,11.92
2022-10-06T06:52:56.372Z,11.95
2022-10-06T06:53:58.177Z,11.99
2022-10-06T06:54:59.851Z,12.04
2022-10-06T06:56:01.570Z,12.1
2022-10-06T06:57:03.364Z,12.15
2022-10-06T06:58:05.043Z,12.19
2022-10-06T06:59:06.804Z,12.24
2022-10-06T07:00:08.822Z,12.28
2022-10-06T07:01:10.309Z,12.31
2022-10-06T07:02:12.124Z,12.35
2022-10-06T07:03:13.751Z,12.4
2022-10-06T07:04:15.492Z,12.46
2022-10-06T07:05:17.181Z,12.51
2022-10-06T07:06:18.928Z,12.56
2022-10-06T07:07:20.670Z,12.6
2022-10-06T07:08:22.403Z,12.64
2022-10-06T07:09:24.145Z,12.67
2022-10-06T07:10:25.864Z,12.7
2022-10-06T07:11:27.586Z,12.73
2022-10-06T07:12:29.320Z,12.77
2022-10-06T07:13:31.082Z,12.8
2022-10-06T07:14:32.827Z,12.82
2022-10-06T07:15:34.611Z,12.86
2022-10-06T07:16:36.281Z,12.89
2022-10-06T07:17:38.011Z,12.92
2022-10-06T07:18:39.728Z,12.96
2022-10-06T07:19:41.470Z,12.99
2022-10-06T07:20:43.219Z,13.02
2022-10-06T07:21:44.935Z,13.05
2022-10-06T07:22:46.683Z,13.08
2022-10-06T07:23:48.420Z,13.1
2022-10-06T07:24:50.177Z,13.13
2022-10-06T07:25:51.869Z,13.14
2022-10-06T07:26:53.610Z,13.17
2022-10-06T07:27:55.547Z,13.19
2022-10-06T07:28:57.096Z,13.22
2022-10-06T07:29:58.827Z,13.26
2022-10-06T07:31:00.654Z,13.29
2022-10-06T07:32:02.293Z,13.32
2022-10-06T07:33:04.018Z,13.35
2022-10-06T07:34:05.780Z,13.37
2022-10-06T07:35:07.484Z,13.41
2022-10-06T07:36:09.230Z,13.45
2022-10-06T07:37:11.012Z,13.47
2022-10-06T07:38:12.693Z,13.5
2022-10-06T07:39:14.429Z,13.53
2022-10-06T07:40:16.147Z,13.55
2022-10-06T07:41:19.798Z,13.57
2022-10-06T07:42:19.619Z,13.58
2022-10-06T07:43:21.345Z,13.62
2022-10-06T07:44:23.105Z,13.66
2022-10-06T07:45:24.833Z,13.69
2022-10-06T07:46:26.648Z,13.74
2022-10-06T07:47:28.290Z,13.81
2022-10-06T07:48:30.045Z,13.87
2022-10-06T07:49:31.774Z,13.91
2022-10-06T07:50:33.478Z,13.9
2022-10-06T07:51:35.246Z,13.91
2022-10-06T07:52:36.975Z,13.87
2022-10-06T07:53:38.711Z,13.88
2022-10-06T07:54:40.468Z,13.88
2022-10-06T07:55:42.183Z,13.88
2022-10-06T07:56:43.920Z,13.85
2022-10-06T07:57:45.639Z,13.84
2022-10-06T07:58:47.378Z,13.8
2022-10-06T07:59:49.188Z,13.79
2022-10-06T08:00:50.835Z,13.73
2022-10-06T08:01:52.705Z,13.72
2022-10-06T08:02:54.361Z,13.72
2022-10-06T08:03:56.048Z,13.73
2022-10-06T08:04:57.800Z,13.75
2022-10-06T08:05:59.516Z,13.8
2022-10-06T08:07:01.248Z,13.84
2022-10-06T08:08:02.970Z,13.86
2022-10-06T08:09:04.724Z,13.89
2022-10-06T08:10:06.465Z,13.9
2022-10-06T08:11:08.267Z,13.91
2022-10-06T08:12:09.913Z,13.94
2022-10-06T08:13:11.637Z,13.97
2022-10-06T08:14:13.404Z,13.97
2022-10-06T08:15:15.125Z,14.06
2022-10-06T08:16:16.925Z,14.17
2022-10-06T08:17:18.582Z,14.25
2022-10-06T08:18:33.743Z,14.31
2022-10-06T08:19:22.051Z,14.42
2022-10-06T08:20:23.785Z,14.56
2022-10-06T08:21:25.518Z,14.67
2022-10-06T08:22:27.256Z,14.8
2022-10-06T08:23:28.985Z,14.94
2022-10-06T08:24:47.962Z,14.98
2022-10-06T08:25:32.450Z,15.03
2022-10-06T08:26:34.197Z,15.22
2022-10-06T08:27:35.917Z,15.37
2022-10-06T08:28:37.927Z,15.5
2022-10-06T08:29:39.396Z,15.66
2022-10-06T08:30:41.122Z,15.82
2022-10-06T08:31:42.982Z,15.94
2022-10-06T08:32:44.582Z,15.98
2022-10-06T08:33:46.319Z,16.12
2022-10-06T08:34:48.088Z,16.07
2022-10-06T08:35:49.770Z,15.98
2022-10-06T08:37:08.619Z,15.93
2022-10-06T08:37:53.261Z,15.94
2022-10-06T08:38:54.992Z,15.78
2022-10-06T08:39:56.734Z,15.56
2022-10-06T08:40:58.469Z,15.59
2022-10-06T08:42:00.189Z,15.82
2022-10-06T08:43:01.918Z,15.97
2022-10-06T08:44:03.688Z,16.04
2022-10-06T08:45:05.395Z,16.22
2022-10-06T08:46:07.125Z,16.38
2022-10-06T08:47:08.866Z,16.47
2022-10-06T08:48:10.601Z,16.51
2022-10-06T08:49:12.338Z,16.62
2022-10-06T08:50:14.066Z,16.64
2022-10-06T08:51:15.802Z,16.61
2022-10-06T08:52:17.525Z,16.6
2022-10-06T08:53:19.257Z,16.55
2022-10-06T08:54:21.015Z,16.45
2022-10-06T08:55:22.739Z,16.33
2022-10-06T08:56:24.468Z,16.27
2022-10-06T08:57:26.212Z,16.21
2022-10-06T08:58:27.951Z,16.18
2022-10-06T08:59:29.671Z,16.19
2022-10-06T09:00:31.401Z,16.14
2022-10-06T09:01:33.277Z,16.1
2022-10-06T09:02:34.947Z,16.06
2022-10-06T09:03:36.609Z,16.03
2022-10-06T09:04:39.126Z,15.98
2022-10-06T09:05:40.133Z,15.92
2022-10-06T09:06:41.867Z,15.79
2022-10-06T09:07:43.552Z,15.8
2022-10-06T09:08:45.282Z,15.74
2022-10-06T09:09:47.029Z,15.69
2022-10-06T09:10:48.835Z,15.63
2022-10-06T09:11:50.483Z,15.59
2022-10-06T09:13:56.455Z,15.54
2022-10-06T09:15:18.380Z,15.5
2022-10-06T09:16:20.133Z,15.52
2022-10-06T09:17:21.802Z,15.55
2022-10-06T09:18:23.540Z,15.62
2022-10-06T09:19:26.325Z,15.69
2022-10-06T09:20:27.029Z,15.77
2022-10-06T09:21:28.734Z,15.8
2022-10-06T09:22:30.474Z,15.79
2022-10-06T09:23:32.200Z,15.83
2022-10-06T09:24:33.962Z,15.86
2022-10-06T09:25:35.658Z,15.84
2022-10-06T09:26:37.401Z,15.85
2022-10-06T09:27:39.153Z,15.81
2022-10-06T09:28:40.995Z,15.79
2022-10-06T09:29:42.613Z,15.81
2022-10-06T09:30:44.336Z,15.84
2022-10-06T09:31:46.117Z,15.82
2022-10-06T09:32:47.806Z,15.84
2022-10-06T09:33:49.552Z,15.89
2022-10-06T09:34:51.299Z,15.93
2022-10-06T09:35:53.021Z,15.97
2022-10-06T09:36:58.883Z,15.97
2022-10-06T09:37:56.482Z,15.97
2022-10-06T09:38:58.217Z,15.94
2022-10-06T09:39:59.952Z,15.95
2022-10-06T09:41:01.672Z,15.93
2022-10-06T09:42:03.415Z,15.91
2022-10-06T09:43:05.149Z,15.91
2022-10-06T09:44:06.884Z,15.89
2022-10-06T09:45:08.634Z,15.86
2022-10-06T09:46:10.366Z,15.8
2022-10-06T09:47:12.092Z,15.75
2022-10-06T09:48:13.820Z,15.65
2022-10-06T09:49:15.575Z,15.63
2022-10-06T09:50:17.476Z,15.63
2022-10-06T09:51:19.039Z,15.61
2022-10-06T09:52:20.754Z,15.6
2022-10-06T09:53:22.492Z,15.58
2022-10-06T09:54:24.258Z,15.54
2022-10-06T09:55:25.955Z,15.52
2022-10-06T09:56:27.688Z,15.5
2022-10-06T09:57:29.410Z,15.54
2022-10-06T09:58:31.178Z,15.53
2022-10-06T09:59:37.636Z,15.53
2022-10-06T10:00:34.708Z,15.56
2022-10-06T10:01:36.355Z,15.57
2022-10-06T10:02:38.164Z,15.57
2022-10-06T10:03:41.960Z,15.6
2022-10-06T10:04:41.595Z,15.65
2022-10-06T10:05:43.302Z,15.65
2022-10-06T10:06:45.033Z,15.7
2022-10-06T10:07:46.767Z,15.73
2022-10-06T10:08:48.504Z,15.77
2022-10-06T10:09:50.233Z,15.81
2022-10-06T10:10:51.970Z,15.83
2022-10-06T10:11:53.702Z,15.86
2022-10-06T10:12:55.436Z,15.9
2022-10-06T10:13:57.159Z,15.94
2022-10-06T10:14:58.932Z,15.96
2022-10-06T10:16:00.756Z,15.98
2022-10-06T10:17:14.895Z,16
2022-10-06T10:18:19.669Z,16.02
2022-10-06T10:19:21.388Z,16
2022-10-06T10:20:23.127Z,16.04
2022-10-06T10:21:24.871Z,16.08
2022-10-06T10:22:26.612Z,16.1
2022-10-06T10:23:31.383Z,16.11
2022-10-06T10:24:30.080Z,16.12
2022-10-06T10:25:31.821Z,16.16
2022-10-06T10:26:33.543Z,16.18
2022-10-06T10:27:35.267Z,16.23
2022-10-06T10:28:37.057Z,16.24
2022-10-06T10:29:38.747Z,16.3
2022-10-06T10:30:40.487Z,16.32
2022-10-06T10:31:42.326Z,16.37
2022-10-06T10:32:43.959Z,16.39
2022-10-06T10:33:54.070Z,16.42
2022-10-06T10:34:47.412Z,16.43
2022-10-06T10:35:49.176Z,16.45
2022-10-06T10:36:50.880Z,16.44
2022-10-06T10:37:52.632Z,16.47
2022-10-06T10:38:54.378Z,16.49
2022-10-06T10:39:56.081Z,16.54
2022-10-06T10:40:57.839Z,16.57
2022-10-06T10:41:59.549Z,16.59
2022-10-06T10:43:01.290Z,16.59
2022-10-06T10:44:04.193Z,16.6
2022-10-06T10:45:04.779Z,16.61
2022-10-06T10:46:06.533Z,16.62
2022-10-06T10:47:08.216Z,16.63
2022-10-06T10:48:09.969Z,16.62
2022-10-06T10:49:11.694Z,16.65
2022-10-06T10:50:13.510Z,16.7
2022-10-06T10:51:15.169Z,16.73
2022-10-06T10:52:16.912Z,16.76
2022-10-06T10:54:20.391Z,16.78
2022-10-06T10:55:22.154Z,16.79
2022-10-06T10:56:23.854Z,16.82
2022-10-06T10:57:25.559Z,16.83
2022-10-06T10:58:27.312Z,16.86
2022-10-06T10:59:29.031Z,16.86
2022-10-06T11:00:30.918Z,16.89
2022-10-06T11:01:32.646Z,16.92
2022-10-06T11:02:34.264Z,16.95
2022-10-06T11:03:35.975Z,16.99
2022-10-06T11:04:37.712Z,16.99
2022-10-06T11:05:39.451Z,17.02
2022-10-06T11:06:41.200Z,17.04
2022-10-06T11:07:42.928Z,17.04
2022-10-06T11:08:44.644Z,17.06
2022-10-06T11:09:46.379Z,17.08
2022-10-06T11:10:48.124Z,17.09
2022-10-06T11:11:52.262Z,17.11
2022-10-06T11:12:51.601Z,17.13
2022-10-06T11:13:53.346Z,17.15
2022-10-06T11:14:55.306Z,17.18
2022-10-06T11:15:56.821Z,17.19
2022-10-06T11:16:58.559Z,17.24
2022-10-06T11:18:00.255Z,17.27
2022-10-06T11:19:01.991Z,17.28
2022-10-06T11:20:03.721Z,17.29
2022-10-06T11:21:05.458Z,17.29
2022-10-06T11:22:07.202Z,17.3
2022-10-06T11:23:08.928Z,17.33
2022-10-06T11:24:10.679Z,17.34
2022-10-06T11:25:12.400Z,17.33
2022-10-06T11:26:14.171Z,17.33
2022-10-06T11:27:15.873Z,17.33
2022-10-06T11:28:17.704Z,17.34
2022-10-06T11:29:19.345Z,17.36
2022-10-06T11:30:21.057Z,17.35
2022-10-06T11:31:23.176Z,17.33
2022-10-06T11:32:24.544Z,17.3
2022-10-06T11:33:26.271Z,17.24
2022-10-06T11:34:28.005Z,17.2
2022-10-06T11:35:29.746Z,17.22
2022-10-06T11:36:31.490Z,17.21
2022-10-06T11:37:33.215Z,17.19
2022-10-06T11:38:34.938Z,17.21
2022-10-06T11:39:37.684Z,17.2
2022-10-06T11:40:38.383Z,17.17
2022-10-06T11:41:40.105Z,17.18
2022-10-06T11:42:41.834Z,17.17
2022-10-06T11:43:43.559Z,17.18
2022-10-06T11:44:45.269Z,17.18
2022-10-06T11:45:47.040Z,17.2
2022-10-06T11:46:48.773Z,17.21
2022-10-06T11:47:50.517Z,17.2
2022-10-06T11:48:52.211Z,17.21
2022-10-06T11:49:53.968Z,17.19
2022-10-06T11:50:55.680Z,17.19
2022-10-06T11:51:59.684Z,17.18
2022-10-06T11:52:59.154Z,17.17
2022-10-06T11:54:00.888Z,17.18
2022-10-06T11:55:02.811Z,17.19
2022-10-06T11:56:04.351Z,17.21
2022-10-06T11:57:06.102Z,17.24
2022-10-06T11:58:23.496Z,17.24
2022-10-06T11:59:09.545Z,17.26
2022-10-06T12:00:11.408Z,17.27
2022-10-06T12:01:13.033Z,17.3
2022-10-06T12:02:14.884Z,17.33
2022-10-06T12:03:16.584Z,17.35
2022-10-06T12:04:23.448Z,17.37
2022-10-06T12:05:55.881Z,17.39
2022-10-06T12:06:21.840Z,17.42
2022-10-06T12:07:23.470Z,17.43
2022-10-06T12:08:25.177Z,17.46
2022-10-06T12:09:26.880Z,17.5
2022-10-06T12:10:28.624Z,17.53
2022-10-06T12:11:30.368Z,17.54
2022-10-06T12:12:32.101Z,17.56
2022-10-06T12:17:12.675Z,17.61
2022-10-06T12:17:40.750Z,17.63
2022-10-06T12:18:42.509Z,17.65
2022-10-06T12:19:44.219Z,17.65
2022-10-06T12:20:45.957Z,17.65
2022-10-06T12:21:47.697Z,17.65
2022-10-06T12:22:49.429Z,17.62
2022-10-06T12:23:51.170Z,17.62
2022-10-06T12:24:52.896Z,17.62
2022-10-06T12:25:54.643Z,17.6
2022-10-06T12:26:56.391Z,17.59
2022-10-06T12:27:58.203Z,17.58
2022-10-06T12:28:59.857Z,17.61
2022-10-06T12:30:02.032Z,17.63
2022-10-06T12:31:03.537Z,17.68
2022-10-06T12:32:05.044Z,17.71
2022-10-06T12:33:06.819Z,17.77
2022-10-06T12:34:08.521Z,17.8
2022-10-06T12:35:10.249Z,17.84
2022-10-06T12:36:11.977Z,17.87
2022-10-06T12:37:13.716Z,17.9
2022-10-06T12:38:15.466Z,17.92
2022-10-06T12:39:17.182Z,17.95
2022-10-06T12:40:18.910Z,17.98
2022-10-06T12:41:20.642Z,18.01
2022-10-06T12:42:22.384Z,18.04
2022-10-06T12:43:24.122Z,18.07
2022-10-06T12:44:25.851Z,18.09
2022-10-06T12:45:27.576Z,18.1
2022-10-06T12:46:29.355Z,18.13
2022-10-06T12:47:31.044Z,18.15
2022-10-06T12:48:32.802Z,18.17
2022-10-06T12:49:34.522Z,18.2
2022-10-06T12:50:36.255Z,18.21
2022-10-06T12:51:37.986Z,18.24
2022-10-06T12:52:39.720Z,18.26
2022-10-06T12:53:41.452Z,18.29
2022-10-06T12:54:43.201Z,18.31
2022-10-06T12:55:44.925Z,18.32
2022-10-06T12:56:46.646Z,18.33
2022-10-06T12:57:48.391Z,18.35
2022-10-06T12:58:50.128Z,18.36
2022-10-06T12:59:51.872Z,18.38
2022-10-06T13:00:53.667Z,18.41
2022-10-06T13:01:55.420Z,18.44
2022-10-06T13:02:57.067Z,18.45
2022-10-06T13:03:58.805Z,18.46
2022-10-06T13:05:01.021Z,18.47
2022-10-06T13:06:02.270Z,18.49
2022-10-06T13:07:08.413Z,18.51
2022-10-06T13:08:05.749Z,18.53
2022-10-06T13:09:07.478Z,18.52
2022-10-06T13:10:09.211Z,18.48
2022-10-06T13:11:10.939Z,18.47
2022-10-06T13:12:12.683Z,18.46
2022-10-06T13:13:14.434Z,18.46
2022-10-06T13:14:16.147Z,18.46
2022-10-06T13:15:17.998Z,18.48
2022-10-06T13:16:19.643Z,18.5
2022-10-06T13:17:21.345Z,18.53
2022-10-06T13:18:23.105Z,18.57
2022-10-06T13:19:24.816Z,18.6
2022-10-06T13:20:26.560Z,18.62
2022-10-06T13:21:28.290Z,18.65
2022-10-06T13:22:30.029Z,18.67
2022-10-06T13:23:31.755Z,18.7
2022-10-06T13:24:33.505Z,18.72